createdAt,value
2018-06-21T00:01:16.956Z,20.86
2018-06-21T00:03:48.632Z,21.04
2018-06-21T00:06:19.792Z,21.39
2018-06-21T00:08:50.787Z,21.47
2018-06-21T00:11:22.506Z,21.71
2018-06-21T00:13:53.494Z,21.84
2018-06-21T00:16:24.675Z,22.11
2018-06-21T00:53:21.314Z,22.50
2018-06-21T00:56:02.645Z,22.58
2018-06-21T00:58:34.653Z,22.46
2018-06-21T01:01:05.772Z,22.52
2018-06-21T01:03:37.224Z,22.59
2018-06-21T01:06:08.309Z,22.71
2018-06-21T01:08:39.698Z,22.84
2018-06-21T01:11:10.939Z,22.93
2018-06-21T01:13:43.488Z,22.91
2018-06-21T01:16:14.649Z,22.96
2018-06-21T01:18:45.702Z,22.97
2018-06-21T01:21:17.777Z,22.91
2018-06-21T01:23:48.993Z,22.90
2018-06-21T01:26:20.419Z,22.86
2018-06-21T01:28:51.859Z,23.01
2018-06-21T01:31:22.699Z,22.96
2018-06-21T01:33:53.954Z,22.81
2018-06-21T01:36:25.060Z,22.84
2018-06-21T01:38:56.250Z,22.88
2018-06-21T01:41:27.252Z,23.00
2018-06-21T01:43:58.400Z,22.95
2018-06-21T01:46:29.528Z,22.88
2018-06-21T01:49:00.749Z,22.91
2018-06-21T01:51:31.816Z,23.03
2018-06-21T01:54:03.080Z,23.17
2018-06-21T01:56:34.154Z,23.38
2018-06-21T01:59:06.417Z,23.41
2018-06-21T02:01:37.542Z,23.32
2018-06-21T02:04:08.913Z,23.38
2018-06-21T02:06:40.102Z,23.22
2018-06-21T02:09:11.319Z,23.17
2018-06-21T02:11:42.218Z,23.23
2018-06-21T02:14:13.367Z,23.31
2018-06-21T02:16:44.595Z,23.44
2018-06-21T02:19:15.728Z,23.42
2018-06-21T02:21:46.738Z,23.44
2018-06-21T02:24:17.938Z,23.49
2018-06-21T02:26:48.884Z,23.61
2018-06-21T02:29:20.024Z,23.55
2018-06-21T02:31:51.166Z,23.43
2018-06-21T02:34:22.040Z,23.49
2018-06-21T02:36:53.361Z,23.54
2018-06-21T02:39:24.493Z,23.48
2018-06-21T02:41:55.556Z,23.51
2018-06-21T02:44:27.181Z,23.55
2018-06-21T02:46:58.473Z,23.55
2018-06-21T02:49:29.760Z,23.63
2018-06-21T02:52:01.159Z,23.70
2018-06-21T02:54:32.458Z,23.74
2018-06-21T02:57:03.550Z,23.78
2018-06-21T02:59:34.537Z,23.90
2018-06-21T03:02:05.613Z,24.05
2018-06-21T03:04:37.308Z,24.16
2018-06-21T03:07:08.658Z,24.46
2018-06-21T03:09:39.952Z,25.22
2018-06-21T03:12:15.781Z,25.84
2018-06-21T03:14:46.909Z,26.44
2018-06-21T03:17:18.044Z,26.96
2018-06-21T03:19:49.840Z,27.49
2018-06-21T03:22:20.768Z,28.02
2018-06-21T03:24:52.043Z,28.34
2018-06-21T03:27:23.231Z,28.80
2018-06-21T03:29:54.517Z,29.24
2018-06-21T03:32:25.874Z,29.95
2018-06-21T03:34:57.067Z,29.90
2018-06-21T03:37:28.037Z,30.51
2018-06-21T03:40:00.651Z,30.48
2018-06-21T03:42:32.165Z,30.61
2018-06-21T03:45:03.217Z,30.79
2018-06-21T03:47:34.348Z,31.10
2018-06-21T03:50:05.639Z,31.28
2018-06-21T03:52:36.853Z,31.56
2018-06-21T03:55:08.011Z,31.95
2018-06-21T03:57:38.881Z,31.68
2018-06-21T04:00:10.023Z,31.94
2018-06-21T04:02:41.126Z,32.77
2018-06-21T04:05:12.046Z,32.94
2018-06-21T04:07:43.307Z,33.33
2018-06-21T04:10:14.591Z,33.63
2018-06-21T04:12:45.857Z,33.54
2018-06-21T04:15:17.092Z,34.15
2018-06-21T04:17:48.066Z,34.31
2018-06-21T04:20:19.765Z,33.34
2018-06-21T04:22:50.875Z,34.56
2018-06-21T04:25:22.193Z,34.15
2018-06-21T04:27:54.136Z,33.96
2018-06-21T04:30:25.465Z,34.74
2018-06-21T04:32:56.470Z,34.66
2018-06-21T04:35:27.566Z,34.92
2018-06-21T04:37:58.732Z,34.69
2018-06-21T04:40:30.080Z,33.84
2018-06-21T04:43:01.289Z,34.19
2018-06-21T04:45:32.559Z,34.86
2018-06-21T04:48:03.554Z,35.37
2018-06-21T04:50:35.353Z,35.21
2018-06-21T04:53:07.208Z,36.79
2018-06-21T04:55:38.406Z,38.34
2018-06-21T04:58:09.082Z,38.43
2018-06-21T05:00:40.212Z,39.22
2018-06-21T05:03:11.239Z,40.38
2018-06-21T05:05:42.552Z,38.89
2018-06-21T05:08:14.939Z,40.46
2018-06-21T05:10:46.029Z,39.86
2018-06-21T05:13:17.074Z,39.17
2018-06-21T05:15:48.204Z,39.55
2018-06-21T05:18:19.319Z,40.74
2018-06-21T05:20:50.476Z,41.71
2018-06-21T05:23:22.180Z,41.36
2018-06-21T05:25:53.622Z,41.16
2018-06-21T05:28:24.702Z,40.43
2018-06-21T05:30:56.010Z,40.57
2018-06-21T05:33:27.276Z,40.97
2018-06-21T05:35:58.477Z,40.96
2018-06-21T05:38:29.755Z,39.86
2018-06-21T05:41:01.612Z,40.29
2018-06-21T05:43:33.209Z,40.03
2018-06-21T05:46:04.506Z,41.08
2018-06-21T05:48:36.399Z,40.58
2018-06-21T05:51:07.723Z,40.80
2018-06-21T05:53:38.697Z,39.43
2018-06-21T05:56:09.980Z,40.89
2018-06-21T05:58:41.374Z,39.77
2018-06-21T06:01:12.480Z,40.39
2018-06-21T06:03:43.927Z,41.31
2018-06-21T06:06:14.901Z,41.03
2018-06-21T06:08:46.091Z,41.76
2018-06-21T06:11:17.177Z,45.10
2018-06-21T06:13:48.126Z,45.64
2018-06-21T06:16:19.960Z,46.51
2018-06-21T06:18:51.116Z,45.22
2018-06-21T06:21:22.561Z,45.69
2018-06-21T06:23:53.912Z,46.88
2018-06-21T06:26:25.085Z,47.94
2018-06-21T06:28:56.069Z,48.41
2018-06-21T06:31:27.144Z,46.64
2018-06-21T06:33:58.308Z,47.37
2018-06-21T06:36:29.509Z,44.58
2018-06-21T06:39:18.033Z,45.57
2018-06-21T06:41:51.013Z,47.86
2018-06-21T06:44:22.178Z,48.91
2018-06-21T06:46:53.285Z,48.60
2018-06-21T06:49:24.290Z,49.09
2018-06-21T06:51:55.315Z,49.30
2018-06-21T06:54:26.849Z,49.17
2018-06-21T06:56:58.933Z,49.49
2018-06-21T06:59:30.060Z,48.49
2018-06-21T07:02:02.319Z,49.33
2018-06-21T07:04:33.554Z,48.80
2018-06-21T07:07:04.701Z,48.39
2018-06-21T07:09:35.585Z,48.78
2018-06-21T07:12:06.577Z,49.61
2018-06-21T07:14:37.712Z,50.23
2018-06-21T07:17:09.945Z,50.10
2018-06-21T07:19:41.311Z,49.60
2018-06-21T07:22:12.571Z,49.85
2018-06-21T07:24:43.575Z,49.28
2018-06-21T07:27:14.775Z,49.53
2018-06-21T07:29:45.748Z,50.36
2018-06-21T07:32:16.764Z,49.26
2018-06-21T07:34:47.985Z,47.52
2018-06-21T07:37:19.125Z,45.52
2018-06-21T07:39:51.022Z,45.79
2018-06-21T07:42:22.045Z,44.03
2018-06-21T07:44:53.336Z,41.77
2018-06-21T07:47:24.543Z,39.28
2018-06-21T07:49:55.508Z,40.09
2018-06-21T07:52:26.717Z,39.53
2018-06-21T07:54:57.951Z,39.41
2018-06-21T07:57:29.152Z,35.53
2018-06-21T08:00:00.391Z,35.31
2018-06-21T08:02:31.586Z,36.99
2018-06-21T08:05:03.400Z,37.77
2018-06-21T08:07:34.661Z,37.43
2018-06-21T08:10:05.714Z,35.52
2018-06-21T08:12:36.925Z,35.92
2018-06-21T08:15:07.777Z,35.56
2018-06-21T08:17:39.077Z,34.88
2018-06-21T08:20:10.101Z,34.24
2018-06-21T08:22:41.384Z,33.09
2018-06-21T08:25:12.894Z,32.28
2018-06-21T08:27:44.156Z,31.77
2018-06-21T08:30:15.129Z,31.61
2018-06-21T08:32:46.341Z,31.77
2018-06-21T08:35:17.674Z,32.02
2018-06-21T08:37:50.365Z,31.95
2018-06-21T08:40:21.284Z,31.84
2018-06-21T08:42:52.251Z,31.56
2018-06-21T08:45:23.360Z,31.79
2018-06-21T08:47:54.340Z,31.74
2018-06-21T08:50:25.653Z,31.32
2018-06-21T08:52:56.928Z,31.50
2018-06-21T08:55:28.139Z,31.48
2018-06-21T08:57:59.249Z,31.48
2018-06-21T09:00:30.375Z,31.64
2018-06-21T09:03:01.443Z,31.91
2018-06-21T09:05:32.544Z,31.88
2018-06-21T09:08:03.573Z,31.99
2018-06-21T09:10:34.638Z,32.09
2018-06-21T09:13:05.822Z,31.88
2018-06-21T09:15:36.906Z,32.00
2018-06-21T09:18:08.578Z,32.17
2018-06-21T09:20:39.929Z,31.79
2018-06-21T09:23:11.325Z,31.84
2018-06-21T09:25:42.573Z,31.60
2018-06-21T09:28:13.899Z,31.40
2018-06-21T09:30:44.920Z,31.64
2018-06-21T09:33:16.250Z,31.62
2018-06-21T09:35:47.463Z,31.55
2018-06-21T09:38:23.338Z,31.53
2018-06-21T09:40:59.177Z,31.70
2018-06-21T09:43:34.829Z,31.59
2018-06-21T09:46:10.934Z,31.21
2018-06-21T09:48:45.954Z,31.36
2018-06-21T09:51:16.922Z,31.23
2018-06-21T09:53:47.775Z,30.77
2018-06-21T09:56:19.445Z,31.01
2018-06-21T09:58:51.532Z,31.03
2018-06-21T10:01:22.554Z,31.08
2018-06-21T10:03:53.697Z,31.14
2018-06-21T10:06:24.801Z,31.23
2018-06-21T10:08:56.138Z,31.36
2018-06-21T10:11:27.287Z,31.37
2018-06-21T10:13:58.837Z,31.35
2018-06-21T10:16:29.820Z,31.24
2018-06-21T10:19:01.261Z,31.32
2018-06-21T10:21:32.412Z,31.09
2018-06-21T10:24:04.445Z,30.91
2018-06-21T10:26:35.728Z,30.95
2018-06-21T10:29:07.010Z,31.10
2018-06-21T10:31:38.935Z,31.25
2018-06-21T10:34:10.159Z,31.08
2018-06-21T10:36:41.430Z,31.08
2018-06-21T10:39:13.340Z,31.03
2018-06-21T10:41:44.444Z,30.90
2018-06-21T10:44:16.035Z,30.73
2018-06-21T10:46:47.290Z,30.84
2018-06-21T10:49:18.701Z,30.61
2018-06-21T10:51:49.758Z,30.45
2018-06-21T10:54:21.201Z,30.69
2018-06-21T10:56:52.442Z,30.59
2018-06-21T10:59:23.586Z,30.45
2018-06-21T11:01:54.666Z,30.47
2018-06-21T11:04:25.679Z,30.72
2018-06-21T11:06:56.574Z,30.71
2018-06-21T11:09:28.313Z,30.55
2018-06-21T11:11:59.446Z,30.53
2018-06-21T11:14:30.578Z,30.58
2018-06-21T11:17:01.906Z,30.58
2018-06-21T11:19:33.186Z,30.47
2018-06-21T11:22:04.194Z,30.52
2018-06-21T11:24:35.229Z,30.60
2018-06-21T11:27:07.194Z,30.30
2018-06-21T11:29:38.893Z,29.83
2018-06-21T11:32:11.015Z,29.69
2018-06-21T11:34:42.402Z,29.74
2018-06-21T11:37:14.389Z,29.83
2018-06-21T11:39:45.829Z,30.07
2018-06-21T11:42:16.910Z,30.07
2018-06-21T11:44:47.904Z,29.77
2018-06-21T11:47:18.971Z,29.66
2018-06-21T11:49:50.265Z,29.47
2018-06-21T11:52:21.632Z,29.50
2018-06-21T11:54:52.905Z,29.46
2018-06-21T11:57:23.912Z,29.24
2018-06-21T11:59:55.096Z,29.31
2018-06-21T12:02:26.468Z,29.36
2018-06-21T12:04:57.886Z,29.25
2018-06-21T12:07:28.955Z,29.18
2018-06-21T12:10:00.240Z,29.46
2018-06-21T12:12:31.503Z,29.02
2018-06-21T12:15:02.629Z,28.80
2018-06-21T12:17:33.826Z,28.98
2018-06-21T12:20:04.842Z,29.13
2018-06-21T12:22:35.984Z,29.08
2018-06-21T12:25:07.668Z,29.24
2018-06-21T12:27:38.729Z,28.76
2018-06-21T12:30:10.002Z,28.72
2018-06-21T12:32:41.031Z,28.94
2018-06-21T12:35:12.250Z,28.65
2018-06-21T12:37:43.361Z,28.86
2018-06-21T12:40:14.429Z,29.08
2018-06-21T12:42:45.646Z,29.04
2018-06-21T12:45:17.038Z,28.78
2018-06-21T12:47:48.132Z,28.71
2018-06-21T12:50:19.346Z,28.72
2018-06-21T12:52:50.692Z,28.58
2018-06-21T12:55:22.137Z,28.78
2018-06-21T12:57:53.370Z,28.72
2018-06-21T13:00:24.597Z,28.72
2018-06-21T13:02:56.875Z,28.34
2018-06-21T13:05:28.123Z,28.37
2018-06-21T13:07:59.753Z,28.47
2018-06-21T13:10:41.341Z,28.71
2018-06-21T13:13:30.008Z,28.85
2018-06-21T13:16:00.854Z,29.07
2018-06-21T13:18:32.076Z,29.04
2018-06-21T13:21:03.105Z,29.17
2018-06-21T13:23:34.199Z,29.14
2018-06-21T13:26:05.536Z,28.77
2018-06-21T13:28:37.824Z,28.82
2018-06-21T13:31:09.791Z,29.06
2018-06-21T13:33:40.797Z,29.15
2018-06-21T13:36:12.097Z,28.92
2018-06-21T13:38:44.227Z,28.49
2018-06-21T13:41:15.451Z,28.37
2018-06-21T13:43:46.532Z,28.65
2018-06-21T13:46:17.896Z,28.82
2018-06-21T13:48:50.026Z,28.70
2018-06-21T13:51:21.310Z,28.56
2018-06-21T13:53:52.522Z,28.84
2018-06-21T13:56:23.750Z,28.59
2018-06-21T13:58:56.990Z,28.69
2018-06-21T14:01:28.337Z,28.46
2018-06-21T14:03:59.446Z,28.64
2018-06-21T14:06:30.617Z,28.73
2018-06-21T14:09:01.733Z,28.69
2018-06-21T14:11:33.126Z,28.59
2018-06-21T14:14:04.321Z,28.33
2018-06-21T14:16:37.700Z,28.22
2018-06-21T14:19:14.016Z,28.01
2018-06-21T14:21:45.386Z,28.07
2018-06-21T14:24:16.734Z,28.16
2018-06-21T14:26:47.964Z,28.14
2018-06-21T14:29:18.976Z,27.53
2018-06-21T14:31:50.074Z,27.40
2018-06-21T14:34:21.173Z,27.18
2018-06-21T14:36:53.495Z,27.28
2018-06-21T14:39:35.020Z,27.15
2018-06-21T14:42:12.110Z,27.48
2018-06-21T14:44:43.327Z,27.65
2018-06-21T14:47:14.906Z,27.82
2018-06-21T14:49:46.284Z,28.04
2018-06-21T14:52:17.666Z,28.02
2018-06-21T14:54:49.641Z,27.94
2018-06-21T14:57:21.559Z,27.90
2018-06-21T14:59:52.893Z,27.90
2018-06-21T15:02:23.984Z,27.97
2018-06-21T15:04:54.960Z,28.02
2018-06-21T15:07:26.235Z,27.92
2018-06-21T15:09:57.417Z,28.32
2018-06-21T15:12:28.463Z,28.38
2018-06-21T15:14:59.733Z,28.60
2018-06-21T15:17:31.247Z,28.61
2018-06-21T15:20:02.466Z,28.81
2018-06-21T15:22:33.845Z,28.92
2018-06-21T15:25:04.752Z,28.46
2018-06-21T15:27:35.914Z,28.53
2018-06-21T15:30:06.887Z,28.36
2018-06-21T15:32:38.289Z,28.06
2018-06-21T15:35:09.215Z,28.13
2018-06-21T15:37:40.489Z,28.24
2018-06-21T15:40:16.109Z,28.17
2018-06-21T15:42:48.120Z,28.17
2018-06-21T15:45:19.647Z,28.21
2018-06-21T15:47:50.912Z,28.30
2018-06-21T15:50:21.995Z,28.05
2018-06-21T15:52:54.057Z,28.23
2018-06-21T15:55:25.167Z,28.36
2018-06-21T15:57:56.437Z,28.19
2018-06-21T16:00:27.499Z,28.11
2018-06-21T16:02:58.505Z,28.19
2018-06-21T16:05:30.174Z,28.23
2018-06-21T16:08:01.326Z,28.11
2018-06-21T16:10:33.247Z,28.14
2018-06-21T16:13:04.551Z,27.98
2018-06-21T16:15:38.851Z,27.94
2018-06-21T16:18:10.315Z,27.80
2018-06-21T16:20:41.808Z,27.69
2018-06-21T16:23:13.501Z,27.32
2018-06-21T16:25:44.453Z,27.19
2018-06-21T16:28:15.999Z,27.30
2018-06-21T16:30:47.195Z,27.32
2018-06-21T16:33:18.295Z,27.25
2018-06-21T16:35:49.461Z,27.19
2018-06-21T16:38:20.719Z,27.20
2018-06-21T16:40:51.831Z,26.99
2018-06-21T16:43:22.973Z,26.99
2018-06-21T16:45:53.972Z,26.93
2018-06-21T16:48:25.309Z,27.13
2018-06-21T16:50:56.366Z,27.11
2018-06-21T16:53:27.665Z,26.88
2018-06-21T16:55:58.860Z,26.72
2018-06-21T16:58:30.039Z,26.75
2018-06-21T17:01:01.303Z,26.65
2018-06-21T17:03:33.873Z,26.69
2018-06-21T17:06:05.068Z,26.69
2018-06-21T17:08:35.899Z,26.68
2018-06-21T17:11:07.267Z,26.59
2018-06-21T17:13:38.351Z,26.57
2018-06-21T17:16:09.534Z,26.50
2018-06-21T17:18:41.647Z,26.79
2018-06-21T17:21:12.774Z,26.57
2018-06-21T17:23:44.169Z,26.49
2018-06-21T17:26:15.268Z,26.49
2018-06-21T17:28:46.442Z,26.42
2018-06-21T17:31:17.921Z,26.29
2018-06-21T17:33:49.403Z,26.21
2018-06-21T17:36:20.565Z,26.08
2018-06-21T17:38:51.877Z,26.03
2018-06-21T17:41:23.939Z,25.96
2018-06-21T17:43:55.208Z,26.06
2018-06-21T17:46:26.411Z,26.04
2018-06-21T17:48:58.516Z,26.06
2018-06-21T17:51:29.887Z,26.04
2018-06-21T17:54:01.281Z,25.92
2018-06-21T17:56:32.571Z,25.80
2018-06-21T17:59:03.675Z,25.83
2018-06-21T18:01:34.637Z,25.80
2018-06-21T18:04:05.723Z,25.84
2018-06-21T18:06:36.695Z,25.86
2018-06-21T18:09:09.244Z,25.83
2018-06-21T18:11:40.220Z,25.76
2018-06-21T18:14:11.325Z,25.44
2018-06-21T18:16:42.765Z,25.38
2018-06-21T18:19:18.547Z,25.38
2018-06-21T18:22:06.133Z,25.34
2018-06-21T18:24:56.039Z,25.27
2018-06-21T18:27:40.430Z,25.27
2018-06-21T18:30:17.869Z,25.30
2018-06-21T18:32:52.713Z,25.09
2018-06-21T18:35:28.883Z,25.09
2018-06-21T18:38:03.484Z,25.09
2018-06-21T18:40:38.429Z,25.10
2018-06-21T18:43:10.756Z,25.15
2018-06-21T18:47:11.141Z,25.10
2018-06-21T18:49:42.580Z,25.05
2018-06-21T18:52:13.857Z,24.91
2018-06-21T18:54:45.201Z,24.92
2018-06-21T18:57:16.588Z,24.78
2018-06-21T18:59:47.622Z,24.60
2018-06-21T19:02:18.823Z,24.59
2018-06-21T19:04:49.908Z,24.49
2018-06-21T19:07:26.196Z,24.54
2018-06-21T19:10:02.308Z,24.55
2018-06-21T19:12:33.411Z,24.54
2018-06-21T19:15:04.917Z,24.47
2018-06-21T19:17:36.522Z,24.35
2018-06-21T19:20:07.512Z,24.45
2018-06-21T19:22:38.659Z,24.44
2018-06-21T19:25:09.624Z,24.37
2018-06-21T19:27:41.192Z,24.45
2018-06-21T19:30:12.129Z,24.40
2018-06-21T19:32:43.113Z,24.41
2018-06-21T19:35:14.278Z,24.38
2018-06-21T19:37:45.626Z,24.38
2018-06-21T19:40:16.719Z,24.30
2018-06-21T19:42:47.706Z,24.36
2018-06-21T19:45:19.449Z,24.31
2018-06-21T19:47:50.682Z,24.41
2018-06-21T19:50:21.748Z,24.40
2018-06-21T19:52:52.839Z,24.48
2018-06-21T19:55:24.904Z,24.46
2018-06-21T19:57:55.747Z,24.34
2018-06-21T20:00:26.885Z,24.36
2018-06-21T20:03:00.930Z,24.29
2018-06-21T20:05:31.972Z,24.28
2018-06-21T20:08:03.249Z,24.16
2018-06-21T20:10:34.252Z,24.28
2018-06-21T20:13:05.611Z,24.25
2018-06-21T20:15:54.432Z,24.36
2018-06-21T20:18:26.554Z,24.26
2018-06-21T20:21:01.014Z,24.27
2018-06-21T20:23:32.448Z,24.26
2018-06-21T20:26:03.832Z,24.22
2018-06-21T20:28:37.450Z,24.25
2018-06-21T20:31:09.877Z,24.32
2018-06-21T20:33:42.631Z,24.36
2018-06-21T20:36:15.019Z,24.29
2018-06-21T20:38:46.614Z,24.40
2018-06-21T20:41:18.024Z,24.35
2018-06-21T20:43:49.748Z,24.25
2018-06-21T20:46:22.029Z,24.31
2018-06-21T20:48:53.245Z,24.33
2018-06-21T20:51:24.726Z,24.30
2018-06-21T20:53:56.331Z,24.43
2018-06-21T20:56:27.661Z,24.42
2018-06-21T20:58:59.164Z,24.35
2018-06-21T21:01:30.421Z,24.31
2018-06-21T21:04:01.891Z,24.25
2018-06-21T21:06:33.357Z,24.26
2018-06-21T21:09:08.138Z,24.12
2018-06-21T21:11:40.661Z,24.19
2018-06-21T21:14:27.612Z,24.10
2018-06-21T21:17:01.677Z,24.00
2018-06-21T21:19:32.793Z,24.02
2018-06-21T21:22:04.095Z,24.04
2018-06-21T21:24:35.410Z,24.09
2018-06-21T21:27:07.735Z,24.14
2018-06-21T21:29:40.103Z,24.12
2018-06-21T21:32:13.794Z,24.12
2018-06-21T21:34:45.953Z,24.13
2018-06-21T21:37:17.097Z,24.08
2018-06-21T21:39:48.327Z,24.08
2018-06-21T21:42:20.386Z,24.08
2018-06-21T21:44:51.209Z,24.04
2018-06-21T21:47:24.043Z,24.00
2018-06-21T21:50:06.181Z,24.08
2018-06-21T21:52:37.407Z,24.08
2018-06-21T21:55:08.752Z,24.06
2018-06-21T21:57:39.743Z,24.06
2018-06-21T22:00:48.547Z,24.06
2018-06-21T22:03:19.806Z,23.50
2018-06-21T22:05:50.705Z,23.86
2018-06-21T22:08:22.816Z,23.78
2018-06-21T22:10:54.836Z,23.80
2018-06-21T22:13:26.014Z,23.78
2018-06-21T22:15:58.502Z,23.75
2018-06-21T22:18:30.295Z,23.69
2018-06-21T22:21:01.258Z,23.68
2018-06-21T22:23:32.597Z,23.63
2018-06-21T22:26:03.851Z,23.53
2018-06-21T22:28:35.800Z,23.55
2018-06-21T22:31:07.641Z,23.45
2018-06-21T22:33:38.754Z,23.47
2018-06-21T22:36:10.947Z,23.45
2018-06-21T22:38:42.323Z,23.45
2018-06-21T22:41:14.931Z,23.39
2018-06-21T22:43:48.051Z,23.39
2018-06-21T22:46:21.311Z,23.41
2018-06-21T22:48:52.586Z,23.35
2018-06-21T22:51:23.561Z,23.32
2018-06-21T22:53:55.852Z,23.36
2018-06-21T22:56:28.765Z,23.32
2018-06-21T22:59:01.209Z,23.45
2018-06-21T23:01:33.979Z,23.32
2018-06-21T23:04:05.130Z,23.27
2018-06-21T23:06:36.696Z,23.34
2018-06-21T23:09:09.510Z,23.29
2018-06-21T23:11:42.907Z,23.24
2018-06-21T23:14:14.352Z,23.24
2018-06-21T23:16:47.433Z,23.19
2018-06-21T23:19:30.437Z,23.17
2018-06-21T23:22:02.799Z,23.24
2018-06-21T23:24:33.924Z,23.14
2018-06-21T23:27:06.482Z,23.01
2018-06-21T23:29:37.478Z,23.18
2018-06-21T23:32:09.494Z,23.15
2018-06-21T23:34:43.340Z,23.24
2018-06-21T23:37:16.898Z,23.30
2018-06-21T23:39:48.011Z,23.24
2018-06-21T23:42:19.491Z,23.29
2018-06-21T23:44:50.615Z,23.29
2018-06-21T23:47:22.026Z,23.18
2018-06-21T23:49:53.110Z,23.04
2018-06-21T23:52:24.595Z,22.96
2018-06-21T23:54:55.902Z,22.92
2018-06-21T23:57:27.950Z,22.96
2018-06-21T23:59:59.966Z,23.05
